Terminal Aerodrome Forecast
Issued by NWS

Home | Current Version | Previous Version | Text Only | Print | Product List | Glossary On
Versions: 1 2 3 4 5 6 7 8 9 10 11 12 13 14 15 16 17 18 19 20 21 22 23 24 25 26 27 28
000
FTUS44 KBMX 030520
TAFANB
TAF
KANB 030520Z 0306/0406 22008KT P6SM SCT150 OVC250
     FM031000 21010KT P6SM VCSH BKN025
     FM031500 25010KT P6SM OVC100
     FM031800 25012G22KT P6SM VCTS SCT050CB=

USA.gov is the U.S. government's official web portal to all federal, state and local government web resources and services.